Terminal Aerodrome Forecast
Issued by NWS Charleston, WV

Current Version | Previous Version | Text Only | Print | Product List | Glossary Off
Versions: 1 2 3 4 5 6 7 8 9 10 11 12 13 14 15 16 17 18 19 20 21 22 23 24 25 26 27

673
FTUS41 KRLX 190539
TAFPKB
TAF
KPKB 190539Z 1906/2006 13004KT P6SM BKN200 WS020/20045KT
     FM190800 18007G15KT P6SM OVC035
     FM191000 18007G15KT P6SM -RA OVC015
     FM191500 20009G15KT P6SM BKN015
     FM191900 21009G15KT P6SM BKN040
     FM200100 19006KT P6SM BKN100=

USA.gov is the U.S. government's official web portal to all federal, state and local government web resources and services.